Time;durP1;ratioP1;P1;durP2;ratioP2;P2;SDS_P1;SDS_P2;PMS_P1;PMS_P2;Temp;Humidity;BMP_temperature;BMP_pressure;BME280_temperature;BME280_humidity;BME280_pressure;Samples;Min_cycle;Max_cycle;Signal;HPM_P1;HPM_P2
2021/11/23 00:02:24;;;;;;;8.30;7.40;;;;;;;4.67;64.15;97539.97;4994089;28;20517;-69
2021/11/23 00:04:51;;;;;;;8.30;7.40;;;;;;;4.42;64.19;97546.03;5012033;28;20207;-70
2021/11/23 00:07:17;;;;;;;7.60;6.47;;;;;;;4.50;64.92;97542.91;5014434;28;20426;-71
2021/11/23 00:09:43;;;;;;;9.60;7.57;;;;;;;4.18;65.06;97551.13;5008877;28;20411;-71
2021/11/23 00:12:08;;;;;;;12.97;7.73;;;;;;;4.17;65.00;97557.25;5016958;28;20458;-71
2021/11/23 00:14:34;;;;;;;8.00;7.20;;;;;;;4.23;65.23;97554.25;5016462;28;20431;-70
2021/11/23 00:17:00;;;;;;;8.70;7.73;;;;;;;3.95;66.10;97553.50;4991290;28;20177;-70
2021/11/23 00:19:25;;;;;;;10.40;8.80;;;;;;;4.01;66.34;97553.09;4997541;28;20188;-70
2021/11/23 00:21:51;;;;;;;9.13;7.60;;;;;;;4.30;65.69;97545.09;5014971;28;20169;-70
2021/11/23 00:24:16;;;;;;;8.37;7.50;;;;;;;4.41;64.53;97546.97;5016015;28;20270;-70
2021/11/23 00:26:42;;;;;;;9.20;7.80;;;;;;;4.48;64.68;97549.97;5014107;28;20275;-69
2021/11/23 00:29:08;;;;;;;8.20;7.40;;;;;;;4.46;64.18;97553.50;5016244;28;20597;-69
2021/11/23 00:31:33;;;;;;;8.83;7.90;;;;;;;4.38;64.19;97553.22;5015596;28;20213;-70
2021/11/23 00:33:59;;;;;;;9.20;8.10;;;;;;;4.09;64.88;97550.81;5015194;28;20770;-69
2021/11/23 00:36:24;;;;;;;9.37;8.00;;;;;;;4.28;65.28;97554.78;5015789;28;20184;-71
2021/11/23 00:38:50;;;;;;;9.13;8.20;;;;;;;4.31;64.49;97554.53;5011912;28;20181;-72
2021/11/23 00:41:19;;;;;;;9.07;7.60;;;;;;;4.32;64.83;97545.81;5012202;28;20600;-71
2021/11/23 00:43:46;;;;;;;7.83;6.83;;;;;;;4.32;64.89;97553.59;5015069;28;20552;-70
2021/11/23 00:46:12;;;;;;;11.03;7.63;;;;;;;4.35;64.66;97543.03;4993025;28;20474;-70
2021/11/23 00:48:38;;;;;;;9.37;7.23;;;;;;;4.41;64.83;97552.16;5014821;28;20462;-71
2021/11/23 00:51:04;;;;;;;9.33;8.20;;;;;;;4.42;63.77;97553.81;4997187;28;20180;-71
2021/11/23 00:53:32;;;;;;;10.77;8.13;;;;;;;4.35;64.52;97561.19;5014843;28;20204;-71
2021/11/23 00:55:59;;;;;;;9.40;8.00;;;;;;;4.29;64.09;97562.44;5014809;28;20470;-71
2021/11/23 00:58:24;;;;;;;8.80;7.57;;;;;;;4.30;64.25;97560.66;4989309;28;21132;-71
2021/11/23 01:00:50;;;;;;;7.90;7.10;;;;;;;4.30;64.15;97561.50;4996743;28;20424;-72
2021/11/23 01:03:17;;;;;;;8.83;7.80;;;;;;;4.16;64.70;97561.59;5012297;28;20212;-71
2021/11/23 01:05:45;;;;;;;9.77;7.97;;;;;;;4.16;64.00;97556.41;5022003;28;20605;-71
2021/11/23 01:08:11;;;;;;;12.17;8.90;;;;;;;4.21;63.88;97554.34;5016769;28;20431;-70
2021/11/23 01:10:37;;;;;;;8.70;7.60;;;;;;;4.15;64.16;97563.38;5010986;28;20416;-70
2021/11/23 01:13:03;;;;;;;11.23;8.40;;;;;;;4.12;64.52;97565.34;5025679;28;20257;-71
2021/11/23 01:15:28;;;;;;;9.07;7.50;;;;;;;4.18;64.68;97561.50;5029191;28;20203;-71
2021/11/23 01:17:54;;;;;;;8.77;7.67;;;;;;;4.09;64.00;97563.78;5017363;28;20427;-72
2021/11/23 01:20:21;;;;;;;11.70;8.70;;;;;;;4.07;64.52;97557.03;5013200;28;20188;-71
2021/11/23 01:22:47;;;;;;;9.17;8.03;;;;;;;3.93;64.45;97557.94;4995140;28;20192;-70
2021/11/23 01:25:12;;;;;;;10.57;8.60;;;;;;;3.75;64.58;97557.41;4991135;28;20464;-70
2021/11/23 01:27:38;;;;;;;10.70;8.23;;;;;;;3.82;64.95;97556.91;5005888;28;20256;-71
2021/11/23 01:30:05;;;;;;;11.97;8.13;;;;;;;3.85;65.39;97563.63;5014906;28;20186;-72
2021/11/23 01:32:31;;;;;;;10.90;9.37;;;;;;;3.88;64.91;97566.03;5031798;28;20216;-71
2021/11/23 01:34:56;;;;;;;11.73;8.60;;;;;;;3.84;64.48;97569.78;5021496;28;20470;-71
2021/11/23 01:37:22;;;;;;;10.27;8.60;;;;;;;3.70;64.89;97570.66;5014183;28;20191;-71
2021/11/23 01:39:48;;;;;;;13.23;9.20;;;;;;;3.74;65.02;97568.69;5014586;28;20181;-71
2021/11/23 01:42:13;;;;;;;11.23;9.50;;;;;;;3.67;64.66;97563.09;4997700;28;20266;-71
2021/11/23 01:44:39;;;;;;;10.47;8.70;;;;;;;3.64;64.70;97566.72;5005491;28;20272;-72
2021/11/23 01:47:04;;;;;;;11.33;9.27;;;;;;;3.09;66.52;97565.09;5013796;28;20185;-72
2021/11/23 01:49:30;;;;;;;14.30;9.00;;;;;;;3.26;65.44;97572.59;5005205;28;20195;-72
2021/11/23 01:51:56;;;;;;;12.00;8.90;;;;;;;3.03;66.54;97571.44;5013607;28;20192;-72
2021/11/23 01:54:21;;;;;;;11.90;9.30;;;;;;;2.96;67.51;97578.78;5012955;28;20184;-71
2021/11/23 01:56:47;;;;;;;10.87;8.97;;;;;;;3.10;66.51;97572.75;5004782;28;20431;-72
2021/11/23 01:59:13;;;;;;;11.40;9.40;;;;;;;3.37;65.86;97571.94;5004833;28;20686;-70
2021/11/23 02:01:39;;;;;;;10.30;9.07;;;;;;;2.98;67.01;97576.91;5007598;28;20598;-71
2021/11/23 02:04:05;;;;;;;10.20;8.57;;;;;;;3.46;65.40;97578.28;5007700;28;20254;-71
2021/11/23 02:06:31;;;;;;;11.60;9.30;;;;;;;3.36;65.55;97573.66;5013248;28;20195;-71
2021/11/23 02:08:57;;;;;;;15.20;9.47;;;;;;;3.52;65.14;97573.53;5008518;28;20424;-70
2021/11/23 02:11:22;;;;;;;10.47;9.00;;;;;;;3.39;65.45;97572.66;5010217;28;20424;-70
2021/11/23 02:13:48;;;;;;;9.50;8.40;;;;;;;3.35;65.54;97572.00;4994888;28;20200;-70
2021/11/23 02:16:14;;;;;;;11.00;8.93;;;;;;;3.47;64.87;97567.81;5010622;28;20658;-71
2021/11/23 02:18:39;;;;;;;11.23;8.90;;;;;;;3.56;65.15;97562.97;4962992;28;20847;-71
2021/11/23 02:21:05;;;;;;;11.83;8.90;;;;;;;3.32;65.60;97563.59;5011479;28;20291;-71
2021/11/23 02:23:30;;;;;;;10.67;9.33;;;;;;;3.11;65.83;97569.22;5010489;28;20678;-71
2021/11/23 02:25:56;;;;;;;19.70;9.00;;;;;;;2.96;66.49;97557.25;5012182;28;20181;-71
2021/11/23 02:28:22;;;;;;;14.43;9.70;;;;;;;2.67;67.78;97557.28;5012191;28;20689;-71
2021/11/23 02:30:53;;;;;;;12.03;9.33;;;;;;;2.26;68.80;97564.88;5010820;28;20188;-70
2021/11/23 02:33:21;;;;;;;10.03;8.83;;;;;;;2.56;68.20;97569.13;5004203;28;20816;-69
2021/11/23 02:35:48;;;;;;;11.80;9.93;;;;;;;2.87;66.97;97567.25;4994049;28;20419;-70
2021/11/23 02:38:16;;;;;;;13.90;9.70;;;;;;;3.02;66.94;97569.81;5012372;28;20936;-71
2021/11/23 02:40:41;;;;;;;9.80;8.43;;;;;;;3.20;66.57;97567.81;5002273;28;20419;-70
2021/11/23 02:43:07;;;;;;;10.40;8.77;;;;;;;3.26;66.22;97564.00;5011839;28;20439;-72
2021/11/23 02:45:33;;;;;;;13.10;10.23;;;;;;;2.80;66.50;97572.91;5012100;28;20189;-71
2021/11/23 02:48:03;;;;;;;11.30;9.23;;;;;;;3.08;66.53;97574.59;5012252;28;20188;-71
2021/11/23 02:50:29;;;;;;;11.13;9.40;;;;;;;2.80;66.94;97572.91;5011338;28;20192;-70
2021/11/23 02:52:55;;;;;;;11.53;9.23;;;;;;;3.13;66.21;97582.91;4989118;28;20813;-72
2021/11/23 02:55:24;;;;;;;12.40;9.37;;;;;;;3.11;66.15;97571.81;5006769;28;20829;-71
2021/11/23 02:57:49;;;;;;;13.17;10.07;;;;;;;3.14;66.18;97584.59;5003604;28;20462;-71
2021/11/23 03:00:20;;;;;;;15.60;9.57;;;;;;;3.10;65.96;97580.53;5010536;28;20931;-70
2021/11/23 03:02:46;;;;;;;13.53;9.63;;;;;;;2.97;66.56;97577.03;5011785;28;20267;-71
2021/11/23 03:05:13;;;;;;;11.70;9.83;;;;;;;2.32;67.58;97579.19;4995243;28;20435;-71
2021/11/23 03:07:48;;;;;;;14.63;9.23;;;;;;;2.70;66.88;97580.38;5005100;28;20455;-73
2021/11/23 03:10:14;;;;;;;13.40;9.70;;;;;;;2.81;66.92;97580.56;5013679;28;20570;-68
2021/11/23 03:12:41;;;;;;;17.57;10.27;;;;;;;2.60;67.21;97580.97;4999035;28;20472;-70
2021/11/23 03:15:08;;;;;;;12.80;9.83;;;;;;;2.38;67.76;97578.00;5009102;28;20255;-69
2021/11/23 03:17:34;;;;;;;12.60;9.73;;;;;;;2.53;67.67;97584.81;4993540;28;20424;-71
2021/11/23 03:20:00;;;;;;;11.77;9.50;;;;;;;2.19;68.38;97578.25;5011168;28;20415;-72
2021/11/23 03:22:25;;;;;;;13.00;9.70;;;;;;;2.12;69.24;97576.03;5012068;28;20508;-72
2021/11/23 03:24:51;;;;;;;12.90;10.60;;;;;;;2.07;68.80;97569.47;4994888;28;20188;-71
2021/11/23 03:27:17;;;;;;;13.00;10.17;;;;;;;2.11;68.82;97573.53;5011717;28;20438;-70
2021/11/23 03:29:42;;;;;;;14.00;10.70;;;;;;;1.71;70.10;97574.09;4994170;28;20272;-71
2021/11/23 03:32:09;;;;;;;14.10;10.70;;;;;;;1.68;70.56;97569.94;5011633;28;20617;-71
2021/11/23 03:34:39;;;;;;;14.77;11.17;;;;;;;1.78;70.39;97569.38;5012364;28;20451;-72
2021/11/23 03:37:15;;;;;;;14.37;10.63;;;;;;;1.77;70.13;97572.91;5012645;28;20411;-70
2021/11/23 03:39:42;;;;;;;14.10;10.60;;;;;;;2.02;69.87;97580.06;5005358;28;20803;-71
2021/11/23 03:42:08;;;;;;;17.30;11.33;;;;;;;2.05;69.00;97577.31;5011976;28;20423;-71
2021/11/23 03:44:35;;;;;;;15.70;11.33;;;;;;;1.91;69.66;97578.09;5011892;28;20544;-71
2021/11/23 03:47:02;;;;;;;15.40;11.13;;;;;;;2.24;69.02;97571.91;5011246;28;20420;-71
2021/11/23 03:49:28;;;;;;;14.10;10.03;;;;;;;2.46;68.00;97573.19;5011444;28;20418;-70
2021/11/23 03:51:55;;;;;;;14.83;11.27;;;;;;;2.53;67.79;97577.06;5011850;28;20755;-70
2021/11/23 03:54:24;;;;;;;15.60;11.90;;;;;;;2.59;67.03;97573.25;4994705;28;20259;-70
2021/11/23 03:56:51;;;;;;;15.60;11.37;;;;;;;2.37;67.80;97584.09;5005203;28;20462;-69
2021/11/23 03:59:17;;;;;;;15.87;10.87;;;;;;;2.38;68.07;97583.19;5002702;28;20778;-71
2021/11/23 04:01:44;;;;;;;19.20;10.87;;;;;;;2.64;67.27;97580.78;5011641;28;20894;-71
2021/11/23 04:04:09;;;;;;;13.47;10.23;;;;;;;2.70;67.01;97580.38;4993483;28;20458;-71
2021/11/23 04:06:35;;;;;;;13.77;10.23;;;;;;;2.44;67.49;97577.63;5011928;28;20423;-70
2021/11/23 04:09:01;;;;;;;13.43;10.33;;;;;;;2.32;67.86;97575.78;5005666;28;20177;-71
2021/11/23 04:11:26;;;;;;;13.97;10.40;;;;;;;2.56;67.32;97570.88;5010351;28;20691;-70
2021/11/23 04:13:52;;;;;;;16.50;10.13;;;;;;;2.66;66.71;97572.00;5011836;28;20684;-70
2021/11/23 04:16:17;;;;;;;12.60;10.07;;;;;;;2.68;66.53;97571.88;5010145;28;20608;-70
2021/11/23 04:18:44;;;;;;;14.13;10.17;;;;;;;2.56;66.81;97574.28;4992951;28;20180;-71
2021/11/23 04:21:11;;;;;;;14.97;10.30;;;;;;;2.62;66.91;97573.09;4992589;28;20723;-70
2021/11/23 04:23:36;;;;;;;15.83;10.30;;;;;;;2.61;66.59;97569.69;5010240;28;20439;-70
2021/11/23 04:26:02;;;;;;;17.53;11.43;;;;;;;2.21;67.35;97574.66;4994437;28;20430;-70
2021/11/23 04:28:27;;;;;;;16.13;10.57;;;;;;;1.97;68.35;97575.19;5012148;28;20185;-70
2021/11/23 04:30:53;;;;;;;12.50;10.03;;;;;;;2.20;67.93;97570.41;5011336;28;20685;-70
2021/11/23 04:33:19;;;;;;;14.70;10.67;;;;;;;2.23;67.59;97565.06;4993689;28;20215;-70
2021/11/23 04:35:44;;;;;;;19.27;12.07;;;;;;;2.10;67.87;97575.28;5011986;28;20235;-70
2021/11/23 04:38:10;;;;;;;15.90;12.10;;;;;;;2.02;68.36;97577.50;5010760;28;20184;-69
2021/11/23 04:40:36;;;;;;;14.73;11.20;;;;;;;2.07;68.00;97577.22;4981944;28;20631;-70
2021/11/23 04:43:02;;;;;;;17.40;11.80;;;;;;;1.87;68.90;97575.78;5019594;28;20937;-69
2021/11/23 04:45:28;;;;;;;15.40;10.70;;;;;;;1.68;69.39;97577.69;4998751;28;20482;-70
2021/11/23 04:47:55;;;;;;;14.30;11.63;;;;;;;1.74;68.93;97573.09;4988659;28;20527;-70
2021/11/23 04:50:21;;;;;;;16.07;11.97;;;;;;;1.77;69.59;97580.66;4995331;28;20435;-70
2021/11/23 04:52:46;;;;;;;16.13;12.03;;;;;;;1.72;69.30;97580.91;5012507;28;20455;-70
2021/11/23 04:55:12;;;;;;;15.90;11.50;;;;;;;1.99;68.43;97575.06;5014574;28;20176;-70
2021/11/23 04:57:38;;;;;;;15.60;10.90;;;;;;;1.82;69.08;97581.22;4989393;28;20241;-70
2021/11/23 05:00:06;;;;;;;15.87;12.23;;;;;;;1.95;68.18;97579.59;4976409;28;20573;-71
2021/11/23 05:02:31;;;;;;;17.37;11.97;;;;;;;1.88;68.20;97583.47;4997016;28;20447;-69
2021/11/23 05:04:57;;;;;;;18.07;12.40;;;;;;;2.02;68.07;97579.25;4977591;28;20927;-71
2021/11/23 05:07:22;;;;;;;15.60;11.50;;;;;;;1.84;68.56;97594.91;4977249;28;20192;-70
2021/11/23 05:09:48;;;;;;;16.00;11.87;;;;;;;1.99;68.03;97595.75;5002655;28;20184;-70
2021/11/23 05:12:14;;;;;;;18.30;12.50;;;;;;;2.16;67.74;97597.34;4976278;28;20712;-68
2021/11/23 05:14:39;;;;;;;15.53;11.70;;;;;;;2.21;67.28;97594.50;4994298;28;20434;-70
2021/11/23 05:17:05;;;;;;;16.80;11.77;;;;;;;1.75;68.93;97601.44;4985409;28;20181;-70
2021/11/23 05:19:31;;;;;;;17.53;12.13;;;;;;;1.96;68.57;97601.09;4977201;28;20188;-70
2021/11/23 05:21:56;;;;;;;18.73;13.00;;;;;;;2.09;68.29;97602.06;5006836;28;20196;-70
2021/11/23 05:24:22;;;;;;;17.10;12.30;;;;;;;2.08;67.70;97600.38;4996891;28;20192;-69
2021/11/23 05:26:47;;;;;;;19.80;12.63;;;;;;;2.03;68.75;97606.75;4994824;28;20216;-70
2021/11/23 05:29:14;;;;;;;16.20;11.97;;;;;;;1.90;68.22;97604.06;5001224;28;20571;-69
2021/11/23 05:31:40;;;;;;;16.70;12.17;;;;;;;1.64;69.52;97602.03;4998935;28;20312;-69
2021/11/23 05:34:06;;;;;;;17.87;12.97;;;;;;;1.10;71.19;97611.94;5014511;28;20964;-69
2021/11/23 05:36:32;;;;;;;17.43;12.50;;;;;;;1.57;69.50;97607.66;5006851;28;20431;-69
2021/11/23 05:38:57;;;;;;;18.10;12.87;;;;;;;1.78;68.84;97605.56;5013312;28;20204;-70
2021/11/23 05:41:23;;;;;;;18.27;12.60;;;;;;;1.90;68.43;97610.03;5028533;28;20457;-69
2021/11/23 05:43:48;;;;;;;20.27;13.47;;;;;;;1.74;68.85;97607.50;5000395;28;20211;-69
2021/11/23 05:46:14;;;;;;;18.27;12.93;;;;;;;1.98;68.65;97610.47;5008310;28;20209;-68
2021/11/23 05:48:40;;;;;;;16.63;12.47;;;;;;;2.03;68.05;97620.53;4977807;28;20275;-69
2021/11/23 05:51:06;;;;;;;17.43;12.70;;;;;;;2.06;67.61;97617.78;4993766;28;20640;-69
2021/11/23 05:53:33;;;;;;;16.80;12.30;;;;;;;1.84;68.23;97608.66;4993705;28;20577;-69
2021/11/23 05:56:00;;;;;;;20.27;13.70;;;;;;;1.77;68.26;97616.84;5004038;28;20185;-70
2021/11/23 05:58:25;;;;;;;18.47;13.33;;;;;;;1.93;68.26;97617.63;4978925;28;20459;-70
2021/11/23 06:00:52;;;;;;;19.23;13.10;;;;;;;2.01;67.40;97614.59;4994665;28;20420;-70
2021/11/23 06:03:18;;;;;;;17.40;12.53;;;;;;;2.10;67.20;97613.25;4994280;28;20296;-71
2021/11/23 06:05:43;;;;;;;16.00;11.70;;;;;;;2.16;67.10;97615.47;4998189;28;20843;-69
2021/11/23 06:08:09;;;;;;;19.37;13.20;;;;;;;2.15;66.85;97606.88;4999174;28;20185;-69
2021/11/23 06:10:35;;;;;;;19.90;12.63;;;;;;;2.05;67.27;97615.25;5003246;28;20184;-70
2021/11/23 06:13:00;;;;;;;18.13;12.53;;;;;;;2.07;67.43;97613.41;4994648;28;20205;-70
2021/11/23 06:15:29;;;;;;;17.43;12.97;;;;;;;2.11;66.96;97615.75;4995029;28;20191;-68
2021/11/23 06:18:02;;;;;;;22.00;14.07;;;;;;;1.90;67.30;97615.22;5015915;28;20204;-69
2021/11/23 06:20:28;;;;;;;20.00;13.50;;;;;;;1.69;68.10;97610.34;5008628;28;20433;-69
2021/11/23 06:22:56;;;;;;;24.77;13.33;;;;;;;1.67;68.40;97608.78;4995021;28;20860;-68
2021/11/23 06:25:21;;;;;;;17.83;12.90;;;;;;;1.75;68.18;97618.69;4987827;28;20497;-69
2021/11/23 06:27:47;;;;;;;18.07;13.03;;;;;;;1.69;67.83;97615.53;4976789;28;21211;-70
2021/11/23 06:30:12;;;;;;;20.13;14.13;;;;;;;1.88;67.44;97622.25;4978144;28;20197;-68
2021/11/23 06:32:38;;;;;;;20.57;13.13;;;;;;;1.84;67.51;97620.75;4997828;28;20279;-67
2021/11/23 06:35:04;;;;;;;18.07;13.17;;;;;;;1.31;68.96;97626.25;4997258;28;20181;-70
2021/11/23 06:37:29;;;;;;;21.40;13.30;;;;;;;1.48;68.69;97629.66;5001325;28;20217;-69
2021/11/23 06:39:55;;;;;;;19.57;13.90;;;;;;;1.76;68.25;97641.88;4989383;28;20438;-69
2021/11/23 06:42:21;;;;;;;19.40;13.30;;;;;;;1.90;67.88;97642.84;4991683;28;20193;-70
2021/11/23 06:44:47;;;;;;;21.60;14.23;;;;;;;1.99;67.25;97648.31;4981457;28;20424;-68
2021/11/23 06:47:13;;;;;;;38.77;19.13;;;;;;;1.99;67.43;97653.50;4976816;28;20173;-68
2021/11/23 06:49:38;;;;;;;23.13;13.40;;;;;;;1.85;67.10;97656.03;4994222;28;20183;-68
2021/11/23 06:52:05;;;;;;;25.70;14.13;;;;;;;1.35;68.48;97663.91;5002084;28;20291;-68
2021/11/23 06:54:31;;;;;;;19.83;12.60;;;;;;;1.30;69.32;97665.09;4994989;28;20505;-69
2021/11/23 06:56:57;;;;;;;24.53;14.83;;;;;;;0.95;70.25;97663.47;4990575;28;20420;-69
2021/11/23 06:59:23;;;;;;;21.30;14.40;;;;;;;1.22;69.80;97668.06;4974039;28;20416;-69
2021/11/23 07:01:49;;;;;;;19.07;13.20;;;;;;;1.67;68.90;97669.03;4992208;28;20470;-70
2021/11/23 07:04:15;;;;;;;20.27;14.40;;;;;;;1.80;68.42;97676.13;4988944;28;20591;-70
2021/11/23 07:06:40;;;;;;;22.87;14.50;;;;;;;1.90;68.23;97677.25;4989882;28;20530;-69
2021/11/23 07:09:07;;;;;;;24.47;14.27;;;;;;;1.85;67.77;97681.88;5003168;28;20672;-69
2021/11/23 07:11:32;;;;;;;21.50;14.60;;;;;;;1.69;68.41;97687.88;4990986;28;20764;-69
2021/11/23 07:13:59;;;;;;;21.10;14.73;;;;;;;1.32;69.18;97683.91;4992619;28;20506;-69
2021/11/23 07:16:24;;;;;;;20.53;13.30;;;;;;;1.69;68.51;97690.47;4990841;28;20188;-69
2021/11/23 07:18:50;;;;;;;19.17;14.23;;;;;;;1.47;69.20;97685.66;4990339;28;20555;-68
2021/11/23 07:21:16;;;;;;;19.23;13.30;;;;;;;1.77;68.58;97679.72;4989117;28;20177;-68
2021/11/23 07:23:41;;;;;;;22.03;14.50;;;;;;;1.79;68.22;97688.22;4990583;28;20276;-69
2021/11/23 07:26:07;;;;;;;21.27;14.37;;;;;;;1.95;68.19;97688.19;4989795;28;20196;-69
2021/11/23 07:28:32;;;;;;;22.53;14.70;;;;;;;2.10;68.08;97688.25;4992344;28;20191;-68
2021/11/23 07:30:58;;;;;;;27.07;14.10;;;;;;;2.21;67.59;97691.06;4974800;28;20189;-68
2021/11/23 07:33:24;;;;;;;22.63;13.47;;;;;;;2.15;66.96;97693.97;4996235;28;20232;-68
2021/11/23 07:35:50;;;;;;;21.03;14.37;;;;;;;2.16;67.54;97693.06;4984863;28;20188;-70
2021/11/23 07:38:15;;;;;;;20.50;14.50;;;;;;;1.65;68.41;97707.06;4996427;28;20413;-70
2021/11/23 07:40:41;;;;;;;25.90;13.97;;;;;;;2.07;68.09;97693.59;4992546;28;20176;-70
2021/11/23 07:43:07;;;;;;;23.63;15.17;;;;;;;2.19;67.71;97695.47;4991873;28;20632;-68
2021/11/23 07:45:32;;;;;;;23.33;15.47;;;;;;;2.34;66.98;97692.94;4990906;28;20184;-69
2021/11/23 07:47:58;;;;;;;20.37;14.47;;;;;;;2.41;67.14;97694.22;5003648;28;20242;-69
2021/11/23 07:50:24;;;;;;;18.77;14.10;;;;;;;2.52;66.67;97691.84;4974846;28;20667;-68
2021/11/23 07:52:49;;;;;;;22.27;14.27;;;;;;;2.53;66.49;97700.47;4972289;28;20210;-69
2021/11/23 07:55:15;;;;;;;21.30;14.13;;;;;;;2.46;66.71;97698.22;4982521;28;20181;-68
2021/11/23 07:57:41;;;;;;;23.97;14.70;;;;;;;2.32;66.51;97699.94;4982513;28;20268;-69
2021/11/23 08:00:07;;;;;;;22.03;14.43;;;;;;;2.51;66.45;97705.72;4993204;28;20185;-69
2021/11/23 08:02:33;;;;;;;20.90;14.47;;;;;;;2.43;67.20;97705.31;4977159;28;20212;-69
2021/11/23 08:04:59;;;;;;;22.20;15.77;;;;;;;2.22;67.74;97700.47;5005364;28;20905;-69
2021/11/23 08:07:28;;;;;;;20.40;14.00;;;;;;;2.50;67.21;97709.25;4976584;28;20188;-69
2021/11/23 08:09:54;;;;;;;22.80;14.80;;;;;;;2.48;66.72;97705.91;4992353;28;20774;-69
2021/11/23 08:12:19;;;;;;;23.63;15.57;;;;;;;2.47;67.11;97706.81;4991928;28;20459;-70
2021/11/23 08:14:45;;;;;;;22.13;15.63;;;;;;;2.36;66.98;97709.19;4990811;28;20808;-69
2021/11/23 08:17:10;;;;;;;33.10;15.67;;;;;;;2.56;67.18;97719.22;4983192;28;20197;-70
2021/11/23 08:19:36;;;;;;;25.57;16.33;;;;;;;2.41;67.45;97714.94;4988855;28;20180;-69
2021/11/23 08:22:02;;;;;;;23.40;15.33;;;;;;;2.40;68.08;97719.28;4970979;28;20747;-68
2021/11/23 08:24:27;;;;;;;25.33;16.20;;;;;;;2.68;67.40;97719.41;4974268;28;20201;-70
2021/11/23 08:26:56;;;;;;;21.67;15.70;;;;;;;2.81;66.92;97720.38;4974163;28;20265;-69
2021/11/23 08:29:22;;;;;;;22.17;16.20;;;;;;;2.92;66.69;97724.91;4994190;28;20177;-69
2021/11/23 08:31:49;;;;;;;24.53;15.00;;;;;;;2.91;66.62;97725.84;4995547;28;20499;-69
2021/11/23 08:34:15;;;;;;;23.03;15.60;;;;;;;2.95;66.25;97734.25;4995320;28;20201;-68
2021/11/23 08:36:41;;;;;;;28.30;15.20;;;;;;;2.92;66.62;97725.72;4995088;28;20837;-69
2021/11/23 08:39:07;;;;;;;29.33;15.60;;;;;;;3.19;66.41;97730.19;4995503;28;20571;-68
2021/11/23 08:41:32;;;;;;;21.70;15.27;;;;;;;2.88;66.86;97733.78;4995466;28;20189;-69
2021/11/23 08:43:58;;;;;;;24.33;15.40;;;;;;;3.07;65.60;97739.53;4995918;28;20197;-69
2021/11/23 08:46:24;;;;;;;31.43;15.37;;;;;;;3.14;65.74;97734.81;4995908;28;20177;-69
2021/11/23 08:48:50;;;;;;;21.07;14.37;;;;;;;3.17;65.51;97729.44;4995351;28;20193;-69
2021/11/23 08:51:19;;;;;;;20.37;14.63;;;;;;;3.16;65.32;97737.31;4977919;28;20668;-69
2021/11/23 08:53:45;;;;;;;21.03;15.77;;;;;;;3.51;65.02;97734.31;4995017;28;20209;-70
2021/11/23 08:56:10;;;;;;;19.73;14.30;;;;;;;3.09;65.48;97731.66;4996297;28;20431;-70
2021/11/23 08:58:37;;;;;;;20.47;15.13;;;;;;;3.48;64.91;97727.56;4977427;28;20429;-68
2021/11/23 09:01:12;;;;;;;19.30;14.10;;;;;;;3.50;64.66;97725.72;4998212;28;20178;-71
2021/11/23 09:03:39;;;;;;;20.80;13.83;;;;;;;3.19;66.02;97737.94;4981357;28;20451;-70
2021/11/23 09:06:06;;;;;;;19.17;14.00;;;;;;;2.96;66.32;97735.91;4999564;28;20436;-69
2021/11/23 09:08:35;;;;;;;19.03;14.43;;;;;;;3.26;66.03;97722.06;5006909;28;20431;-68
2021/11/23 09:11:01;;;;;;;19.67;13.63;;;;;;;3.53;63.92;97722.91;4996082;28;20795;-70
2021/11/23 09:13:27;;;;;;;14.93;11.90;;;;;;;2.76;66.14;97719.81;4965301;28;20478;-70
2021/11/23 09:15:53;;;;;;;15.30;11.77;;;;;;;3.51;64.05;97722.22;5009464;28;20427;-69
2021/11/23 09:18:20;;;;;;;17.67;12.07;;;;;;;3.38;63.63;97724.72;5005302;28;20185;-71
2021/11/23 09:20:46;;;;;;;13.43;11.40;;;;;;;3.52;62.99;97734.25;5018657;28;20563;-68
2021/11/23 09:23:13;;;;;;;13.13;10.60;;;;;;;3.93;62.30;97739.50;4999652;28;20440;-71
2021/11/23 09:25:39;;;;;;;15.77;12.67;;;;;;;3.71;62.61;97742.63;4959303;28;20184;-70
2021/11/23 09:28:06;;;;;;;15.23;11.40;;;;;;;2.78;64.69;97738.66;4994386;28;20431;-71
2021/11/23 09:30:33;;;;;;;13.40;10.80;;;;;;;3.48;63.48;97737.94;4987732;28;20429;-70
2021/11/23 09:33:00;;;;;;;13.77;11.03;;;;;;;3.46;63.58;97741.56;4992849;28;20464;-70
2021/11/23 09:35:26;;;;;;;14.30;10.80;;;;;;;3.73;62.17;97738.16;5004193;28;20497;-70
2021/11/23 09:37:52;;;;;;;13.63;10.40;;;;;;;3.75;62.92;97747.53;5001287;28;20420;-70
2021/11/23 09:40:18;;;;;;;12.70;11.00;;;;;;;3.79;61.89;97740.38;4978931;28;20825;-70
2021/11/23 09:42:46;;;;;;;14.47;11.03;;;;;;;3.96;61.04;97747.94;4994769;28;20440;-69
2021/11/23 09:45:12;;;;;;;14.80;10.60;;;;;;;3.91;61.53;97743.94;4994096;28;20435;-70
2021/11/23 09:47:37;;;;;;;17.13;10.90;;;;;;;4.05;61.30;97741.31;4994305;28;20425;-70
2021/11/23 09:50:04;;;;;;;14.70;10.73;;;;;;;4.39;61.02;97744.34;4994636;28;20635;-71
2021/11/23 09:52:32;;;;;;;16.17;10.97;;;;;;;4.27;59.82;97740.75;4976785;28;20340;-69
2021/11/23 09:54:57;;;;;;;14.33;10.97;;;;;;;4.52;60.36;97739.16;4994531;28;20424;-68
2021/11/23 09:57:23;;;;;;;14.20;11.13;;;;;;;4.50;60.01;97748.00;4990934;28;20420;-69
2021/11/23 09:59:49;;;;;;;13.40;9.83;;;;;;;4.62;59.30;97734.19;4994140;28;20181;-69
2021/11/23 10:02:28;;;;;;;19.33;9.70;;;;;;;4.37;59.37;97741.00;4997631;28;20268;-69
2021/11/23 10:05:02;;;;;;;9.87;8.53;;;;;;;4.54;59.45;97741.66;4978082;28;20181;-70
2021/11/23 10:07:40;;;;;;;13.13;9.63;;;;;;;4.69;58.00;97745.81;4994742;28;20427;-70
2021/11/23 10:10:25;;;;;;;11.63;9.10;;;;;;;4.89;58.03;97733.28;4994039;28;20859;-69
2021/11/23 10:12:57;;;;;;;14.07;10.73;;;;;;;4.98;57.57;97734.44;4994052;28;20526;-69
2021/11/23 10:15:28;;;;;;;13.40;9.70;;;;;;;4.97;57.58;97731.00;4976199;28;20483;-71
2021/11/23 10:18:23;;;;;;;18.40;10.03;;;;;;;4.97;58.30;97727.59;4996739;28;20444;-69
2021/11/23 10:20:55;;;;;;;18.23;10.83;;;;;;;5.02;58.79;97728.94;4987353;28;20443;-69
2021/11/23 10:23:26;;;;;;;12.70;9.90;;;;;;;5.16;58.44;97737.56;4978824;28;20444;-68
2021/11/23 10:25:55;;;;;;;12.13;9.60;;;;;;;5.11;58.40;97734.41;4976882;28;20436;-68
2021/11/23 10:28:22;;;;;;;11.63;9.60;;;;;;;5.01;57.90;97731.63;4993748;28;20437;-69
2021/11/23 10:30:49;;;;;;;12.20;9.20;;;;;;;5.32;56.60;97724.31;4976018;28;20428;-68
2021/11/23 10:33:16;;;;;;;12.03;8.80;;;;;;;5.54;55.93;97736.66;4993554;28;20492;-68
2021/11/23 10:35:43;;;;;;;11.60;9.60;;;;;;;5.40;56.06;97722.00;4975991;28;20852;-68
2021/11/23 10:38:10;;;;;;;13.77;9.80;;;;;;;5.87;55.53;97722.19;4993313;28;20521;-68
2021/11/23 10:40:38;;;;;;;14.80;9.10;;;;;;;5.87;54.39;97717.00;4999192;28;20411;-68
2021/11/23 10:43:06;;;;;;;12.17;9.33;;;;;;;6.05;54.23;97701.84;5013461;28;20566;-68
2021/11/23 10:45:38;;;;;;;10.70;9.03;;;;;;;6.20;54.62;97702.50;4996889;28;20966;-69
2021/11/23 10:48:04;;;;;;;11.00;8.20;;;;;;;6.05;55.05;97693.22;4981807;28;20963;-68
2021/11/23 10:50:30;;;;;;;9.70;7.00;;;;;;;5.64;54.81;97690.88;4998902;28;20768;-67
2021/11/23 10:53:03;;;;;;;7.00;6.30;;;;;;;5.59;54.77;97697.31;4992839;28;20479;-68
2021/11/23 10:55:31;;;;;;;7.80;7.00;;;;;;;5.84;54.83;97693.78;5001159;28;20224;-68
2021/11/23 10:57:59;;;;;;;14.00;9.40;;;;;;;5.94;54.33;97702.59;4993374;28;20423;-69
2021/11/23 11:00:29;;;;;;;8.07;6.90;;;;;;;5.99;54.23;97694.44;4984194;28;20425;-68
2021/11/23 11:03:00;;;;;;;7.47;6.67;;;;;;;5.88;53.52;97697.84;4997185;28;20798;-68
2021/11/23 11:05:26;;;;;;;7.50;6.43;;;;;;;6.11;53.44;97687.56;4994031;28;20420;-68
2021/11/23 11:07:55;;;;;;;7.40;6.60;;;;;;;5.97;53.73;97689.38;4994723;28;20427;-68
2021/11/23 11:10:21;;;;;;;7.60;6.80;;;;;;;5.99;53.87;97682.31;4993680;28;20416;-69
2021/11/23 11:12:46;;;;;;;8.03;6.57;;;;;;;6.03;53.75;97680.31;4994938;28;21034;-69
2021/11/23 11:15:15;;;;;;;7.20;6.40;;;;;;;6.26;53.54;97681.22;5003087;28;20181;-70
2021/11/23 11:17:44;;;;;;;7.13;6.23;;;;;;;6.59;51.82;97682.25;4983120;28;20276;-68
2021/11/23 11:20:11;;;;;;;7.57;6.00;;;;;;;6.22;52.79;97679.78;4986260;28;20428;-69
2021/11/23 11:22:57;;;;;;;13.10;8.00;;;;;;;6.58;52.54;97680.59;5003967;28;20451;-69
2021/11/23 11:27:48;;;;;;;12.33;8.87;;;;;;;6.69;51.72;97669.38;4994041;28;20424;-68
2021/11/23 11:30:42;;;;;;;9.73;6.83;;;;;;;6.85;51.55;97674.25;4993157;28;20181;-68